createdAt,value
2017-08-28T00:07:54.665Z,20.71
2017-08-28T00:10:38.538Z,20.75
2017-08-28T00:25:24.379Z,20.74
2017-08-28T00:28:08.367Z,20.75
2017-08-28T00:45:32.617Z,20.66
2017-08-28T00:49:13.033Z,20.66
2017-08-28T01:07:36.380Z,20.68
2017-08-28T01:10:20.342Z,20.66
2017-08-28T01:32:38.311Z,20.55
2017-08-28T01:35:56.111Z,20.52
2017-08-28T01:57:55.239Z,20.38
2017-08-28T02:56:12.323Z,20.05
2017-08-28T08:03:04.032Z,22.72
2017-08-28T08:05:47.998Z,22.73
2017-08-28T08:08:42.182Z,22.62
2017-08-28T08:24:25.297Z,22.82
2017-08-28T08:27:09.299Z,22.90
2017-08-28T08:30:59.963Z,22.82
2017-08-28T08:33:45.991Z,22.75
2017-08-28T08:38:11.214Z,22.62
2017-08-28T08:40:56.711Z,22.64
2017-08-28T08:44:02.891Z,22.60
2017-08-28T08:49:55.112Z,22.61
2017-08-28T08:52:50.483Z,22.62
2017-08-28T08:55:45.867Z,22.68
2017-08-28T08:58:41.299Z,22.75
2017-08-28T09:01:36.790Z,22.83
2017-08-28T09:04:32.429Z,22.91
2017-08-28T09:07:28.098Z,23.02
2017-08-28T09:10:23.673Z,23.15
2017-08-28T09:13:19.263Z,23.23
2017-08-28T09:16:14.778Z,23.25
2017-08-28T09:19:10.301Z,23.33
2017-08-28T09:22:05.878Z,23.36
2017-08-28T09:25:01.407Z,23.45
2017-08-28T09:30:52.863Z,23.77
2017-08-28T09:33:48.707Z,23.97
2017-08-28T09:36:44.587Z,24.13
2017-08-28T09:39:40.267Z,24.23
2017-08-28T09:42:36.179Z,24.47
2017-08-28T09:45:32.129Z,24.78
2017-08-28T09:48:27.814Z,24.95
2017-08-28T09:51:23.469Z,24.98
2017-08-28T09:54:19.026Z,24.94
2017-08-28T09:57:14.726Z,24.96
2017-08-28T10:00:10.252Z,24.87
2017-08-28T10:03:05.793Z,24.77
2017-08-28T10:06:01.189Z,24.66
2017-08-28T10:08:56.940Z,24.74
2017-08-28T10:11:52.873Z,25.04
2017-08-28T10:14:49.109Z,25.43
2017-08-28T10:17:45.220Z,25.87
2017-08-28T10:20:41.370Z,26.33
2017-08-28T10:23:37.529Z,26.78
2017-08-28T10:26:33.768Z,27.20
2017-08-28T10:29:30.217Z,27.60
2017-08-28T10:32:26.670Z,28.03
2017-08-28T10:35:23.110Z,28.36
2017-08-28T10:38:19.323Z,28.51
2017-08-28T10:41:15.452Z,28.52
2017-08-28T10:44:11.483Z,28.42
2017-08-28T10:47:07.516Z,28.28
2017-08-28T10:50:03.535Z,28.15
2017-08-28T10:52:59.497Z,28.01
2017-08-28T10:55:55.595Z,27.86
2017-08-28T10:58:51.724Z,27.67
2017-08-28T11:01:47.904Z,27.45
2017-08-28T11:04:43.883Z,27.27
2017-08-28T11:07:39.803Z,27.05
2017-08-28T11:10:35.941Z,26.86
2017-08-28T11:13:31.933Z,26.69
2017-08-28T11:16:27.963Z,26.54
2017-08-28T11:19:23.983Z,26.36
2017-08-28T11:22:19.904Z,26.18
2017-08-28T11:25:15.890Z,26.03
2017-08-28T11:28:11.941Z,25.87
2017-08-28T11:31:07.851Z,25.74
2017-08-28T11:34:03.885Z,25.64
2017-08-28T11:36:59.731Z,25.54
2017-08-28T11:39:55.690Z,25.43
2017-08-28T11:42:51.500Z,25.33
2017-08-28T11:45:47.594Z,25.25
2017-08-28T11:48:43.462Z,25.14
2017-08-28T11:51:39.378Z,25.05
2017-08-28T11:54:35.340Z,24.99
2017-08-28T11:57:31.219Z,24.93
2017-08-28T12:00:27.117Z,24.88
2017-08-28T12:03:22.886Z,24.81
2017-08-28T12:06:18.694Z,24.75
2017-08-28T12:09:14.636Z,24.71
2017-08-28T12:12:10.477Z,24.67
2017-08-28T12:15:06.249Z,24.58
2017-08-28T12:18:02.050Z,24.52
2017-08-28T12:20:58.004Z,24.49
2017-08-28T12:23:53.938Z,24.44
2017-08-28T12:26:49.710Z,24.40
2017-08-28T12:29:45.477Z,24.36
2017-08-28T12:32:41.380Z,24.33
2017-08-28T12:35:37.223Z,24.28
2017-08-28T12:38:33.078Z,24.24
2017-08-28T12:41:28.827Z,24.22
2017-08-28T12:44:24.762Z,24.19
2017-08-28T12:47:20.614Z,24.15
2017-08-28T12:50:16.795Z,24.12
2017-08-28T12:53:12.666Z,24.08
2017-08-28T12:56:08.567Z,24.05
2017-08-28T12:59:04.390Z,24.03
2017-08-28T13:02:00.234Z,24.01
2017-08-28T13:04:56.015Z,23.98
2017-08-28T13:07:51.831Z,23.96
2017-08-28T13:10:47.615Z,23.92
2017-08-28T13:13:43.428Z,23.90
2017-08-28T13:16:39.278Z,23.88
2017-08-28T13:19:35.546Z,23.85
2017-08-28T13:22:31.585Z,23.82
2017-08-28T13:25:27.417Z,23.79
2017-08-28T13:28:23.246Z,23.78
2017-08-28T13:31:19.101Z,23.77
2017-08-28T13:34:14.976Z,23.77
2017-08-28T13:37:10.864Z,23.77
2017-08-28T13:40:06.769Z,23.77
2017-08-28T13:43:02.624Z,23.77
2017-08-28T13:45:58.830Z,23.77
2017-08-28T13:48:54.675Z,23.76
2017-08-28T13:51:50.551Z,23.76
2017-08-28T13:54:46.491Z,23.75
2017-08-28T13:57:42.365Z,23.74
2017-08-28T14:00:38.112Z,23.73
2017-08-28T14:03:33.985Z,23.73
2017-08-28T14:06:30.039Z,23.72
2017-08-28T14:09:25.776Z,23.71
2017-08-28T14:12:21.635Z,23.71
2017-08-28T14:15:17.487Z,23.71
2017-08-28T14:18:13.422Z,23.70
2017-08-28T14:21:09.281Z,23.68
2017-08-28T14:24:05.150Z,23.67
2017-08-28T14:27:01.017Z,23.65
2017-08-28T14:32:52.517Z,23.63
2017-08-28T14:35:48.267Z,23.61
2017-08-28T14:41:40.058Z,23.58
2017-08-28T14:44:35.914Z,23.57
2017-08-28T14:47:31.770Z,23.57
2017-08-28T14:50:27.563Z,23.56
2017-08-28T14:53:23.301Z,23.56
2017-08-28T14:56:19.392Z,23.56
2017-08-28T14:59:15.188Z,23.56
2017-08-28T15:02:11.043Z,23.56
2017-08-28T15:05:06.868Z,23.55
2017-08-28T15:08:02.684Z,23.54
2017-08-28T15:10:58.506Z,23.53
2017-08-28T15:13:54.247Z,23.53
2017-08-28T15:16:50.086Z,23.52
2017-08-28T15:19:45.962Z,23.51
2017-08-28T15:22:41.771Z,23.50
2017-08-28T15:25:37.632Z,23.50
2017-08-28T15:28:33.373Z,23.49
2017-08-28T15:31:29.202Z,23.49
2017-08-28T15:34:24.972Z,23.48
2017-08-28T15:37:20.806Z,23.48
2017-08-28T15:40:16.483Z,23.47
2017-08-28T15:43:12.289Z,23.46
2017-08-28T15:46:08.013Z,23.45
2017-08-28T15:49:03.853Z,23.44
2017-08-28T15:51:59.642Z,23.44
2017-08-28T15:54:55.433Z,23.43
2017-08-28T15:57:51.177Z,23.42
2017-08-28T16:00:46.967Z,23.41
2017-08-28T16:03:42.756Z,23.40
2017-08-28T16:06:38.432Z,23.40
2017-08-28T16:09:34.191Z,23.39
2017-08-28T16:12:30.069Z,23.39
2017-08-28T16:15:25.895Z,23.38
2017-08-28T16:18:21.727Z,23.37
2017-08-28T16:21:17.599Z,23.36
2017-08-28T16:24:13.397Z,23.35
2017-08-28T16:27:09.134Z,23.33
2017-08-28T16:30:05.018Z,23.33
2017-08-28T16:33:00.734Z,23.31
2017-08-28T16:35:56.486Z,23.30
2017-08-28T16:38:52.162Z,23.28
2017-08-28T16:41:47.905Z,23.25
2017-08-28T16:44:43.630Z,23.23
2017-08-28T16:47:39.251Z,23.22
2017-08-28T16:50:34.976Z,23.20
2017-08-28T16:53:30.722Z,23.18
2017-08-28T16:56:26.382Z,23.17
2017-08-28T16:59:22.127Z,23.15
2017-08-28T17:02:17.879Z,23.13
2017-08-28T17:05:13.572Z,23.12
2017-08-28T17:08:09.264Z,23.11
2017-08-28T17:11:04.921Z,23.10
2017-08-28T17:16:56.298Z,23.07
2017-08-28T17:19:51.928Z,23.05
2017-08-28T17:22:47.719Z,23.03
2017-08-28T17:25:43.452Z,23.01
2017-08-28T17:28:39.053Z,22.99
2017-08-28T17:31:35.091Z,22.96
2017-08-28T17:34:30.485Z,22.94
2017-08-28T17:37:26.228Z,22.92
2017-08-28T17:40:21.803Z,22.90
2017-08-28T17:43:17.481Z,22.87
2017-08-28T17:46:13.155Z,22.84
2017-08-28T17:49:08.796Z,22.81
2017-08-28T17:52:04.344Z,22.77
2017-08-28T17:54:59.978Z,22.73
2017-08-28T17:57:55.588Z,22.68
2017-08-28T18:00:51.313Z,22.64
2017-08-28T18:03:46.960Z,22.59
2017-08-28T18:06:42.669Z,22.55
2017-08-28T18:09:38.202Z,22.50
2017-08-28T18:12:33.833Z,22.45
2017-08-28T18:15:29.418Z,22.39
2017-08-28T18:18:25.003Z,22.33
2017-08-28T18:21:20.541Z,22.28
2017-08-28T18:24:16.090Z,22.23
2017-08-28T18:30:06.981Z,22.10
2017-08-28T18:33:02.523Z,22.03
2017-08-28T18:35:58.013Z,21.97
2017-08-28T18:38:53.385Z,21.90
2017-08-28T18:41:48.739Z,21.84
2017-08-28T18:44:44.113Z,21.78
2017-08-28T18:47:39.581Z,21.72
2017-08-28T18:50:34.933Z,21.66
2017-08-28T18:53:30.376Z,21.60
2017-08-28T18:56:25.764Z,21.55
2017-08-28T18:59:21.298Z,21.50
2017-08-28T19:02:16.825Z,21.46
2017-08-28T19:05:12.271Z,21.40
2017-08-28T19:08:07.853Z,21.35
2017-08-28T19:11:03.398Z,21.30
2017-08-28T19:13:58.935Z,21.23
2017-08-28T19:16:54.407Z,21.18
2017-08-28T19:19:49.969Z,21.13
2017-08-28T19:22:45.427Z,21.06
2017-08-28T19:25:40.936Z,21.00
2017-08-28T19:28:36.418Z,20.94
2017-08-28T19:31:31.885Z,20.90
2017-08-28T19:34:27.493Z,20.86
2017-08-28T19:37:22.881Z,20.81
2017-08-28T19:40:18.352Z,20.76
2017-08-28T19:43:13.777Z,20.70
2017-08-28T19:49:04.500Z,20.60
2017-08-28T19:51:59.820Z,20.55
2017-08-28T19:54:55.154Z,20.50
2017-08-28T19:57:50.512Z,20.45
2017-08-28T20:00:45.932Z,20.40
2017-08-28T20:03:41.190Z,20.37
2017-08-28T20:06:36.467Z,20.32
2017-08-28T20:09:31.856Z,20.28
2017-08-28T20:15:22.375Z,20.21
2017-08-28T20:18:17.730Z,20.17
2017-08-28T20:21:13.094Z,20.13
2017-08-28T20:27:03.785Z,20.06
2017-08-28T20:32:59.875Z,20.06
2017-08-28T20:35:44.850Z,20.18
2017-08-28T20:39:24.814Z,20.20
2017-08-28T20:42:11.482Z,20.22
2017-08-28T20:45:06.474Z,20.19
2017-08-28T20:48:01.541Z,20.13
2017-08-28T20:50:56.731Z,20.06
2017-08-28T20:58:11.803Z,20.03
2017-08-28T21:00:56.314Z,20.15
2017-08-28T21:03:50.767Z,20.16
2017-08-28T21:06:45.700Z,20.09
2017-08-28T21:09:40.803Z,20.00
2017-08-28T21:12:35.948Z,19.90
2017-08-28T21:24:56.129Z,20.12
2017-08-28T21:27:40.253Z,20.22
2017-08-28T21:30:34.500Z,20.19
2017-08-28T21:33:29.310Z,20.08
2017-08-28T21:36:24.325Z,19.94
2017-08-28T21:46:06.300Z,19.88
2017-08-28T21:55:03.278Z,20.07
2017-08-28T21:57:47.486Z,20.12
2017-08-28T22:00:41.724Z,20.03
2017-08-28T22:13:01.594Z,19.97
2017-08-28T22:24:36.760Z,20.09
2017-08-28T22:27:20.916Z,20.10
2017-08-28T22:45:41.687Z,20.00
2017-08-28T22:48:25.805Z,20.00
2017-08-28T23:16:00.057Z,19.98
2017-08-28T23:18:44.106Z,19.95
2017-08-28T23:21:38.253Z,19.79
2017-08-28T23:46:57.714Z,19.69
2017-08-28T23:49:41.718Z,19.66
